createdAt,value
2023-03-06T00:00:21.139Z,96714.75
2023-03-06T00:02:47.784Z,96708.25
2023-03-06T00:05:15.191Z,96716.22
2023-03-06T00:07:42.260Z,96715.94
2023-03-06T00:10:13.442Z,96710.13
2023-03-06T00:12:40.017Z,96713.03
2023-03-06T00:15:07.395Z,96706.44
2023-03-06T00:17:33.830Z,96709.59
2023-03-06T00:20:00.378Z,96711.84
2023-03-06T00:22:26.989Z,96695.97
2023-03-06T00:24:54.506Z,96680.59
2023-03-06T00:27:21.528Z,96695.47
2023-03-06T00:29:50.632Z,96692.63
2023-03-06T00:32:17.207Z,96690.44
2023-03-06T00:34:43.775Z,96695.06
2023-03-06T00:37:10.308Z,96697.41
2023-03-06T00:39:37.068Z,96688.88
2023-03-06T00:42:03.714Z,96684.28
2023-03-06T00:44:30.230Z,96688.22
2023-03-06T00:46:56.786Z,96695.63
2023-03-06T00:49:23.365Z,96705.97
2023-03-06T00:51:49.907Z,96702.47
2023-03-06T00:54:16.475Z,96689.72
2023-03-06T00:56:43.026Z,96694.00
2023-03-06T00:59:10.678Z,96697.25
2023-03-06T01:01:37.314Z,96694.28
2023-03-06T01:04:04.256Z,96692.50
2023-03-06T01:06:31.176Z,96685.88
2023-03-06T01:08:57.770Z,96701.53
2023-03-06T01:11:24.396Z,96698.03
2023-03-06T01:13:50.910Z,96694.56
2023-03-06T01:16:19.452Z,96698.84
2023-03-06T01:18:46.268Z,96694.91
2023-03-06T01:21:13.085Z,96690.59
2023-03-06T01:23:39.911Z,96689.22
2023-03-06T01:26:06.843Z,96689.72
2023-03-06T01:28:37.402Z,96697.41
2023-03-06T01:31:05.625Z,96699.47
2023-03-06T01:33:32.247Z,96698.00
2023-03-06T01:35:58.854Z,96691.94
2023-03-06T01:38:25.466Z,96692.13
2023-03-06T01:40:52.037Z,96692.19
2023-03-06T01:43:24.409Z,96681.94
2023-03-06T01:45:50.936Z,96682.06
2023-03-06T01:48:21.309Z,96682.78
2023-03-06T01:50:48.728Z,96671.78
2023-03-06T01:53:15.580Z,96684.16
2023-03-06T01:55:42.462Z,96684.97
2023-03-06T01:58:14.666Z,96680.75
2023-03-06T02:00:41.231Z,96692.56
2023-03-06T02:03:15.790Z,96683.09
2023-03-06T02:05:43.771Z,96663.38
2023-03-06T02:08:16.233Z,96682.44
2023-03-06T02:10:57.410Z,96689.41
2023-03-06T02:13:24.226Z,96690.25
2023-03-06T02:15:50.827Z,96694.25
2023-03-06T02:18:17.480Z,96692.81
2023-03-06T02:20:49.022Z,96693.78
2023-03-06T02:23:26.662Z,96694.78
2023-03-06T02:25:53.991Z,96695.22
2023-03-06T02:28:22.275Z,96696.00
2023-03-06T02:30:51.986Z,96697.91
2023-03-06T02:33:22.063Z,96699.44
2023-03-06T02:35:57.669Z,96695.13
2023-03-06T02:38:28.486Z,96706.88
2023-03-06T02:40:58.001Z,96707.25
2023-03-06T02:43:28.979Z,96685.28
2023-03-06T02:45:55.557Z,96708.00
2023-03-06T02:48:22.260Z,96705.66
2023-03-06T02:50:49.313Z,96710.06
2023-03-06T02:53:18.409Z,96711.34
2023-03-06T02:55:45.478Z,96690.28
2023-03-06T02:58:12.536Z,96702.00
2023-03-06T03:00:40.239Z,96710.97
2023-03-06T03:03:07.960Z,96703.00
2023-03-06T03:05:34.487Z,96705.50
2023-03-06T03:08:01.122Z,96713.72
2023-03-06T03:10:27.751Z,96710.78
2023-03-06T03:12:54.575Z,96714.34
2023-03-06T03:15:21.159Z,96725.09
2023-03-06T03:17:47.727Z,96732.69
2023-03-06T03:20:17.090Z,96725.53
2023-03-06T03:22:48.033Z,96706.66
2023-03-06T03:25:14.611Z,96716.31
2023-03-06T03:27:41.259Z,96713.09
2023-03-06T03:30:08.978Z,96717.16
2023-03-06T03:32:35.717Z,96723.41
2023-03-06T03:35:02.625Z,96725.72
2023-03-06T03:37:29.203Z,96724.13
2023-03-06T03:39:56.471Z,96721.59
2023-03-06T03:42:22.993Z,96725.09
2023-03-06T03:44:49.528Z,96731.06
2023-03-06T03:47:16.070Z,96722.91
2023-03-06T03:49:42.793Z,96723.97
2023-03-06T03:52:09.300Z,96736.44
2023-03-06T03:54:36.626Z,96734.84
2023-03-06T03:57:03.336Z,96728.47
2023-03-06T03:59:29.918Z,96732.94
2023-03-06T04:01:57.187Z,96727.03
2023-03-06T04:04:23.627Z,96729.44
2023-03-06T04:06:50.135Z,96733.28
2023-03-06T04:09:16.715Z,96734.00
2023-03-06T04:11:43.229Z,96728.47
2023-03-06T04:14:11.472Z,96744.41
2023-03-06T04:16:38.031Z,96743.00
2023-03-06T04:19:04.542Z,96741.38
2023-03-06T04:21:31.153Z,96744.53
2023-03-06T04:23:58.580Z,96752.13
2023-03-06T04:26:25.342Z,96759.50
2023-03-06T04:28:51.936Z,96751.88
2023-03-06T04:31:18.504Z,96746.84
2023-03-06T04:33:45.012Z,96759.03
2023-03-06T04:36:25.380Z,96759.03
2023-03-06T04:38:51.965Z,96765.28
2023-03-06T04:41:18.546Z,96764.13
2023-03-06T04:43:46.221Z,96744.06
2023-03-06T04:46:12.878Z,96763.94
2023-03-06T04:48:39.404Z,96771.13
2023-03-06T04:51:06.294Z,96758.75
2023-03-06T04:53:32.965Z,96765.19
2023-03-06T04:55:59.686Z,96775.06
2023-03-06T04:58:26.245Z,96770.72
2023-03-06T05:00:52.846Z,96768.78
2023-03-06T05:03:19.426Z,96774.16
2023-03-06T05:05:46.089Z,96776.28
2023-03-06T05:08:15.284Z,96779.88
2023-03-06T05:10:45.443Z,96778.00
2023-03-06T05:13:12.100Z,96783.59
2023-03-06T05:15:42.075Z,96782.28
2023-03-06T05:18:08.648Z,96786.59
2023-03-06T05:20:35.230Z,96785.06
2023-03-06T05:23:01.756Z,96786.75
2023-03-06T05:25:28.314Z,96787.03
2023-03-06T05:27:54.869Z,96799.34
2023-03-06T05:30:23.174Z,96793.00
2023-03-06T05:32:50.307Z,96795.41
2023-03-06T05:35:19.658Z,96793.09
2023-03-06T05:37:47.094Z,96796.31
2023-03-06T05:40:14.910Z,96793.09
2023-03-06T05:42:41.827Z,96796.41
2023-03-06T05:45:09.123Z,96800.34
2023-03-06T05:47:35.764Z,96801.91
2023-03-06T05:50:02.326Z,96799.16
2023-03-06T05:52:28.872Z,96803.38
2023-03-06T05:54:55.406Z,96805.41
2023-03-06T05:57:23.761Z,96809.28
2023-03-06T05:59:51.015Z,96807.16
2023-03-06T06:02:18.111Z,96802.44
2023-03-06T06:04:44.872Z,96811.47
2023-03-06T06:07:14.992Z,96819.53
2023-03-06T06:09:45.415Z,96823.81
2023-03-06T06:12:13.529Z,96828.75
2023-03-06T06:14:40.226Z,96828.41
2023-03-06T06:17:06.823Z,96830.34
2023-03-06T06:19:33.475Z,96829.97
2023-03-06T06:22:02.653Z,96832.84
2023-03-06T06:24:29.974Z,96832.38
2023-03-06T06:26:57.122Z,96829.09
2023-03-06T06:29:24.217Z,96827.34
2023-03-06T06:31:51.255Z,96822.53
2023-03-06T06:34:17.844Z,96821.41
2023-03-06T06:36:44.438Z,96825.78
2023-03-06T06:39:14.686Z,96830.97
2023-03-06T06:41:59.788Z,96827.41
2023-03-06T06:44:27.952Z,96828.22
2023-03-06T06:47:22.405Z,96832.03
2023-03-06T06:49:41.030Z,96840.91
2023-03-06T06:52:08.061Z,96841.88
2023-03-06T06:54:34.817Z,96841.13
2023-03-06T06:57:01.373Z,96831.78
2023-03-06T06:59:27.944Z,96832.75
2023-03-06T07:01:54.517Z,96834.88
2023-03-06T07:04:21.136Z,96832.16
2023-03-06T07:06:47.771Z,96836.94
2023-03-06T07:09:14.609Z,96827.03
2023-03-06T07:11:41.684Z,96805.44
2023-03-06T07:14:08.348Z,96814.53
2023-03-06T07:16:35.045Z,96820.78
2023-03-06T07:19:01.609Z,96807.22
2023-03-06T07:21:28.224Z,96812.53
2023-03-06T07:23:57.303Z,96812.34
2023-03-06T07:26:25.316Z,96805.97
2023-03-06T07:28:54.489Z,96815.97
2023-03-06T07:31:24.447Z,96807.16
2023-03-06T07:33:52.830Z,96812.25
2023-03-06T07:36:19.912Z,96822.00
2023-03-06T07:38:46.679Z,96808.59
2023-03-06T07:41:15.322Z,96814.50
2023-03-06T07:43:46.173Z,96794.56
2023-03-06T07:46:14.462Z,96817.63
2023-03-06T07:48:41.743Z,96819.38
2023-03-06T07:51:13.478Z,96815.22
2023-03-06T07:53:40.245Z,96815.41
2023-03-06T07:56:11.183Z,96813.56
2023-03-06T07:58:40.804Z,96822.69
2023-03-06T08:01:10.333Z,96811.47
2023-03-06T08:03:37.546Z,96816.16
2023-03-06T08:06:19.909Z,96811.19
2023-03-06T08:08:48.188Z,96813.03
2023-03-06T08:11:17.122Z,96807.97
2023-03-06T08:13:43.882Z,96804.13
2023-03-06T08:16:11.129Z,96810.47
2023-03-06T08:18:40.784Z,96793.28
2023-03-06T08:21:12.859Z,96788.03
2023-03-06T08:23:39.975Z,96799.25
2023-03-06T08:26:10.554Z,96779.56
2023-03-06T08:28:37.190Z,96795.00
2023-03-06T08:31:28.656Z,96793.72
2023-03-06T08:33:57.440Z,96797.25
2023-03-06T08:36:24.212Z,96789.06
2023-03-06T08:38:50.816Z,96782.34
2023-03-06T08:41:17.374Z,96779.53
2023-03-06T08:43:43.997Z,96756.91
2023-03-06T08:46:11.359Z,96750.31
2023-03-06T08:48:37.870Z,96762.38
2023-03-06T08:51:04.641Z,96750.81
2023-03-06T08:53:42.522Z,96739.66
2023-03-06T08:56:27.886Z,96735.78
2023-03-06T08:58:55.260Z,96716.28
2023-03-06T09:01:23.256Z,96721.28
2023-03-06T09:03:50.548Z,96724.34
2023-03-06T09:06:17.545Z,96770.28
2023-03-06T09:08:44.701Z,96747.00
2023-03-06T09:11:12.452Z,96766.66
2023-03-06T09:13:39.090Z,96755.38
2023-03-06T09:16:06.948Z,96757.44
2023-03-06T09:18:33.472Z,96750.66
2023-03-06T09:21:00.118Z,96790.81
2023-03-06T09:23:26.693Z,96785.66
2023-03-06T09:25:55.411Z,96784.00
2023-03-06T09:28:22.296Z,96765.28
2023-03-06T09:30:48.911Z,96781.28
2023-03-06T09:33:16.342Z,96781.50
2023-03-06T09:35:55.830Z,96790.19
2023-03-06T09:38:25.412Z,96787.94
2023-03-06T09:40:58.136Z,96788.50
2023-03-06T09:43:46.989Z,96781.25
2023-03-06T09:46:20.356Z,96785.28
2023-03-06T09:48:57.039Z,96783.66
2023-03-06T09:51:33.820Z,96780.47
2023-03-06T09:54:14.302Z,96780.88
2023-03-06T09:56:48.907Z,96783.47
2023-03-06T09:59:15.422Z,96784.66
2023-03-06T10:01:46.066Z,96783.09
2023-03-06T10:04:46.126Z,96766.81
2023-03-06T10:07:21.026Z,96779.59
2023-03-06T10:10:05.718Z,96772.13
2023-03-06T10:12:43.213Z,96766.66
2023-03-06T10:15:24.146Z,96763.94
2023-03-06T10:17:51.020Z,96752.19
2023-03-06T10:20:38.485Z,96758.28
2023-03-06T10:23:20.836Z,96762.09
2023-03-06T10:26:02.720Z,96751.47
2023-03-06T10:28:34.414Z,96741.09
2023-03-06T10:31:23.221Z,96742.72
2023-03-06T10:33:56.064Z,96738.66
2023-03-06T10:36:27.267Z,96739.50
2023-03-06T10:38:55.595Z,96729.84
2023-03-06T10:41:28.406Z,96719.81
2023-03-06T10:44:00.955Z,96707.53
2023-03-06T10:46:34.926Z,96714.56
2023-03-06T10:49:04.457Z,96711.19
2023-03-06T10:51:31.456Z,96691.63
2023-03-06T10:54:02.246Z,96700.03
2023-03-06T10:56:30.554Z,96688.66
2023-03-06T10:59:09.034Z,96696.34
2023-03-06T11:01:35.843Z,96669.31
2023-03-06T11:04:21.207Z,96674.75
2023-03-06T11:06:48.383Z,96682.19
2023-03-06T11:09:24.214Z,96669.66
2023-03-06T11:11:51.814Z,96643.16
2023-03-06T11:14:22.913Z,96657.03
2023-03-06T11:16:53.792Z,96654.03
2023-03-06T11:19:24.074Z,96646.06
2023-03-06T11:22:24.950Z,96638.97
2023-03-06T11:24:53.885Z,96614.06
2023-03-06T11:27:34.816Z,96628.09
2023-03-06T11:30:30.990Z,96624.38
2023-03-06T11:33:11.878Z,96611.16
2023-03-06T11:35:54.541Z,96612.81
2023-03-06T11:38:44.704Z,96610.72
2023-03-06T11:41:37.944Z,96596.88
2023-03-06T11:44:43.513Z,96596.47
2023-03-06T11:47:25.926Z,96604.47
2023-03-06T11:50:12.476Z,96592.75
2023-03-06T11:52:54.006Z,96597.31
2023-03-06T11:55:39.208Z,96600.41
2023-03-06T11:58:20.804Z,96597.53
2023-03-06T12:00:50.701Z,96591.91
2023-03-06T12:03:44.589Z,96593.78
2023-03-06T12:06:36.626Z,96600.50
2023-03-06T12:09:09.193Z,96609.78
2023-03-06T12:11:44.286Z,96611.28
2023-03-06T12:14:31.464Z,96622.69
2023-03-06T12:17:08.777Z,96601.78
2023-03-06T12:20:06.068Z,96599.75
2023-03-06T12:22:38.464Z,96617.50
2023-03-06T12:25:23.221Z,96602.38
2023-03-06T12:28:23.514Z,96603.69
2023-03-06T12:31:06.925Z,96603.22
2023-03-06T12:34:01.486Z,96611.59
2023-03-06T12:36:40.124Z,96616.50
2023-03-06T12:39:24.600Z,96606.66
2023-03-06T12:42:11.509Z,96602.97
2023-03-06T12:45:03.008Z,96606.22
2023-03-06T12:47:35.122Z,96600.47
2023-03-06T12:50:13.650Z,96610.84
2023-03-06T12:52:41.738Z,96585.59
2023-03-06T12:55:16.646Z,96596.06
2023-03-06T12:57:43.374Z,96591.56
2023-03-06T13:00:34.671Z,96598.72
2023-03-06T13:03:16.078Z,96596.06
2023-03-06T13:05:48.567Z,96581.38
2023-03-06T13:08:27.271Z,96578.00
2023-03-06T13:11:06.725Z,96574.78
2023-03-06T13:13:43.126Z,96571.38
2023-03-06T13:16:09.596Z,96579.41
2023-03-06T13:18:36.189Z,96572.84
2023-03-06T13:21:04.435Z,96568.16
2023-03-06T13:23:33.964Z,96571.19
2023-03-06T13:26:25.255Z,96583.03
2023-03-06T13:28:54.033Z,96598.03
2023-03-06T13:31:32.840Z,96595.47
2023-03-06T13:34:03.357Z,96581.09
2023-03-06T13:36:39.400Z,96582.66
2023-03-06T13:39:08.634Z,96581.72
2023-03-06T13:41:37.697Z,96570.81
2023-03-06T13:44:25.868Z,96581.59
2023-03-06T13:47:19.377Z,96578.50
2023-03-06T13:49:48.437Z,96564.19
2023-03-06T13:52:33.723Z,96578.72
2023-03-06T13:55:07.991Z,96571.09
2023-03-06T13:58:09.151Z,96567.78
2023-03-06T14:00:58.930Z,96566.88
2023-03-06T14:03:51.142Z,96563.13
2023-03-06T14:06:36.134Z,96562.34
2023-03-06T14:09:11.905Z,96554.81
2023-03-06T14:11:45.960Z,96554.72
2023-03-06T14:14:13.097Z,96552.91
2023-03-06T14:16:49.856Z,96558.59
2023-03-06T14:19:17.776Z,96562.53
2023-03-06T14:21:55.893Z,96551.41
2023-03-06T14:24:35.120Z,96561.41
2023-03-06T14:27:01.949Z,96563.34
2023-03-06T14:29:30.257Z,96564.41
2023-03-06T14:31:59.681Z,96552.88
2023-03-06T14:34:28.917Z,96545.84
2023-03-06T14:37:00.066Z,96554.97
2023-03-06T14:39:35.512Z,96556.09
2023-03-06T14:42:22.438Z,96556.19
2023-03-06T14:45:00.075Z,96549.66
2023-03-06T14:47:29.999Z,96561.31
2023-03-06T14:50:32.799Z,96552.63
2023-03-06T14:53:38.115Z,96544.38
2023-03-06T14:56:06.817Z,96548.97
2023-03-06T14:58:54.170Z,96553.56
2023-03-06T15:01:34.247Z,96552.56
2023-03-06T15:04:01.982Z,96551.94
2023-03-06T15:06:40.362Z,96552.13
2023-03-06T15:09:27.796Z,96550.84
2023-03-06T15:12:03.312Z,96557.31
2023-03-06T15:14:39.404Z,96537.72
2023-03-06T15:17:18.267Z,96546.97
2023-03-06T15:19:47.076Z,96552.41
2023-03-06T15:22:43.188Z,96543.31
2023-03-06T15:25:32.230Z,96535.69
2023-03-06T15:28:01.887Z,96534.00
2023-03-06T15:30:33.938Z,96513.38
2023-03-06T15:33:11.308Z,96531.59
2023-03-06T15:35:38.512Z,96525.84
2023-03-06T15:38:29.947Z,96535.69
2023-03-06T15:40:59.065Z,96530.34
2023-03-06T15:43:26.117Z,96533.44
2023-03-06T15:45:59.147Z,96540.63
2023-03-06T15:48:26.154Z,96535.28
2023-03-06T15:50:52.821Z,96530.28
2023-03-06T15:53:20.402Z,96531.56
2023-03-06T15:55:47.260Z,96529.56
2023-03-06T15:58:17.252Z,96527.53
2023-03-06T16:00:44.378Z,96537.69
2023-03-06T16:03:11.391Z,96535.66
2023-03-06T16:05:38.663Z,96535.28
2023-03-06T16:08:06.320Z,96538.94
2023-03-06T16:10:43.846Z,96533.22
2023-03-06T16:13:15.173Z,96538.91
2023-03-06T16:15:47.813Z,96540.66
2023-03-06T16:18:14.638Z,96539.00
2023-03-06T16:20:41.749Z,96541.59
2023-03-06T16:23:10.661Z,96536.44
2023-03-06T16:25:40.213Z,96548.78
2023-03-06T16:28:12.633Z,96548.22
2023-03-06T16:30:39.196Z,96546.66
2023-03-06T16:33:05.915Z,96554.16
2023-03-06T16:35:32.580Z,96551.31
2023-03-06T16:38:00.161Z,96544.00
2023-03-06T16:40:29.873Z,96549.44
2023-03-06T16:42:56.711Z,96548.94
2023-03-06T16:45:24.612Z,96552.00
2023-03-06T16:47:51.502Z,96549.88
2023-03-06T16:50:23.831Z,96558.22
2023-03-06T16:52:50.623Z,96551.13
2023-03-06T16:55:17.314Z,96555.50
2023-03-06T16:57:43.947Z,96571.81
2023-03-06T17:00:11.471Z,96564.53
2023-03-06T17:02:41.670Z,96559.41
2023-03-06T17:05:09.644Z,96561.13
2023-03-06T17:07:37.467Z,96555.59
2023-03-06T17:10:05.810Z,96567.53
2023-03-06T17:12:32.394Z,96565.41
2023-03-06T17:14:59.002Z,96562.09
2023-03-06T17:17:25.530Z,96557.91
2023-03-06T17:19:52.216Z,96557.31
2023-03-06T17:22:20.037Z,96554.13
2023-03-06T17:24:49.984Z,96549.06
2023-03-06T17:27:21.316Z,96551.94
2023-03-06T17:29:48.341Z,96549.47
2023-03-06T17:32:15.216Z,96551.22
2023-03-06T17:34:41.942Z,96551.88
2023-03-06T17:37:08.514Z,96565.59
2023-03-06T17:39:37.379Z,96563.09
2023-03-06T17:42:05.242Z,96560.91
2023-03-06T17:44:33.266Z,96564.38
2023-03-06T17:47:00.036Z,96554.34
2023-03-06T17:49:26.987Z,96564.50
2023-03-06T17:51:55.032Z,96565.50
2023-03-06T17:54:21.639Z,96562.44
2023-03-06T17:56:48.596Z,96560.81
2023-03-06T17:59:15.186Z,96568.63
2023-03-06T18:01:41.793Z,96569.50
2023-03-06T18:04:08.392Z,96576.69
2023-03-06T18:06:35.024Z,96577.00
2023-03-06T18:09:01.875Z,96577.94
2023-03-06T18:11:28.985Z,96587.94
2023-03-06T18:13:55.515Z,96590.75
2023-03-06T18:16:24.148Z,96589.72
2023-03-06T18:18:52.862Z,96591.72
2023-03-06T18:21:20.224Z,96595.88
2023-03-06T18:23:46.699Z,96611.72
2023-03-06T18:26:16.450Z,96608.72
2023-03-06T18:28:46.414Z,96610.50
2023-03-06T18:31:27.687Z,96605.66
2023-03-06T18:34:02.648Z,96609.34
2023-03-06T18:36:31.836Z,96610.91
2023-03-06T18:38:58.845Z,96605.09
2023-03-06T18:41:25.578Z,96603.06
2023-03-06T18:43:56.810Z,96602.47
2023-03-06T18:46:24.508Z,96596.06
2023-03-06T18:48:51.178Z,96598.69
2023-03-06T18:51:19.340Z,96589.66
2023-03-06T18:53:46.084Z,96609.50
2023-03-06T18:56:20.723Z,96607.19
2023-03-06T18:58:48.288Z,96597.38
2023-03-06T19:01:15.067Z,96606.69
2023-03-06T19:03:41.976Z,96598.13
2023-03-06T19:06:11.378Z,96587.34
2023-03-06T19:08:39.571Z,96610.56
2023-03-06T19:11:09.494Z,96608.63
2023-03-06T19:13:36.138Z,96594.44
2023-03-06T19:16:03.486Z,96600.63
2023-03-06T19:18:30.300Z,96602.97
2023-03-06T19:21:10.704Z,96607.03
2023-03-06T19:23:38.017Z,96601.88
2023-03-06T19:26:04.847Z,96593.63
2023-03-06T19:28:31.423Z,96592.28
2023-03-06T19:30:57.961Z,96589.81
2023-03-06T19:33:24.612Z,96597.47
2023-03-06T19:35:51.487Z,96599.19
2023-03-06T19:38:18.012Z,96597.75
2023-03-06T19:40:50.886Z,96602.91
2023-03-06T19:43:17.513Z,96606.03
2023-03-06T19:45:44.591Z,96612.59
2023-03-06T19:48:12.540Z,96608.00
2023-03-06T19:50:40.134Z,96611.41
2023-03-06T19:53:07.872Z,96604.22
2023-03-06T19:55:34.845Z,96607.94
2023-03-06T19:58:01.622Z,96611.66
2023-03-06T20:00:28.619Z,96606.97
2023-03-06T20:02:55.991Z,96602.75
2023-03-06T20:05:22.672Z,96605.06
2023-03-06T20:07:50.126Z,96604.56
2023-03-06T20:10:16.870Z,96604.47
2023-03-06T20:12:43.620Z,96596.34
2023-03-06T20:15:11.848Z,96595.19
2023-03-06T20:17:40.533Z,96599.66
2023-03-06T20:20:10.819Z,96597.34
2023-03-06T20:22:37.661Z,96583.75
2023-03-06T20:25:04.798Z,96574.78
2023-03-06T20:27:31.352Z,96579.16
2023-03-06T20:29:58.061Z,96591.97
2023-03-06T20:32:24.622Z,96584.50
2023-03-06T20:34:51.337Z,96580.25
2023-03-06T20:37:18.114Z,96585.53
2023-03-06T20:39:44.765Z,96583.56
2023-03-06T20:42:11.417Z,96582.53
2023-03-06T20:44:38.027Z,96579.56
2023-03-06T20:47:04.666Z,96587.22
2023-03-06T20:49:31.285Z,96588.81
2023-03-06T20:51:57.816Z,96589.47
2023-03-06T20:54:24.615Z,96588.72
2023-03-06T20:56:51.177Z,96587.97
2023-03-06T20:59:18.083Z,96590.78
2023-03-06T21:01:47.982Z,96595.44
2023-03-06T21:04:15.151Z,96597.31
2023-03-06T21:06:46.295Z,96601.03
2023-03-06T21:09:15.882Z,96590.09
2023-03-06T21:11:42.876Z,96594.94
2023-03-06T21:14:10.844Z,96587.47
2023-03-06T21:16:37.468Z,96582.31
2023-03-06T21:19:05.144Z,96577.75
2023-03-06T21:21:33.758Z,96578.22
2023-03-06T21:24:01.262Z,96577.28
2023-03-06T21:26:30.153Z,96574.78
2023-03-06T21:28:59.002Z,96574.81
2023-03-06T21:31:27.195Z,96574.81
2023-03-06T21:33:54.202Z,96565.19
2023-03-06T21:36:21.971Z,96561.75
2023-03-06T21:38:49.681Z,96556.16
2023-03-06T21:41:24.786Z,96551.19
2023-03-06T21:43:59.861Z,96549.63
2023-03-06T21:46:27.632Z,96551.88
2023-03-06T21:48:54.710Z,96546.88
2023-03-06T21:51:23.727Z,96547.19
2023-03-06T21:53:51.385Z,96540.31
2023-03-06T21:56:20.296Z,96539.03
2023-03-06T21:58:47.145Z,96530.06
2023-03-06T22:01:25.860Z,96538.75
2023-03-06T22:03:53.109Z,96541.84
2023-03-06T22:06:25.437Z,96547.75
2023-03-06T22:08:52.389Z,96544.03
2023-03-06T22:11:21.050Z,96546.22
2023-03-06T22:13:51.393Z,96551.38
2023-03-06T22:16:18.412Z,96540.31
2023-03-06T22:18:46.668Z,96544.34
2023-03-06T22:21:15.383Z,96555.88
2023-03-06T22:23:42.267Z,96540.66
2023-03-06T22:26:13.684Z,96548.91
2023-03-06T22:28:41.631Z,96548.91
2023-03-06T22:31:08.161Z,96546.41
2023-03-06T22:33:34.924Z,96544.06
2023-03-06T22:36:06.087Z,96534.25
2023-03-06T22:38:34.990Z,96550.91
2023-03-06T22:41:01.940Z,96539.56
2023-03-06T22:43:28.517Z,96528.66
2023-03-06T22:45:55.202Z,96533.16
2023-03-06T22:48:23.039Z,96533.00
2023-03-06T22:50:49.633Z,96530.97
2023-03-06T22:53:16.178Z,96531.59
2023-03-06T22:55:42.728Z,96530.06
2023-03-06T22:58:09.243Z,96531.78
2023-03-06T23:00:35.786Z,96531.59
2023-03-06T23:03:02.311Z,96537.69
2023-03-06T23:05:29.606Z,96545.31
2023-03-06T23:07:56.180Z,96541.09
2023-03-06T23:10:22.808Z,96551.84
2023-03-06T23:12:49.316Z,96547.78
2023-03-06T23:15:15.867Z,96551.25
2023-03-06T23:17:42.565Z,96545.63
2023-03-06T23:20:10.248Z,96549.38
2023-03-06T23:22:36.802Z,96547.78
2023-03-06T23:25:03.602Z,96546.25
2023-03-06T23:27:30.222Z,96552.16
2023-03-06T23:29:59.044Z,96566.47
2023-03-06T23:32:25.858Z,96551.69
2023-03-06T23:34:52.527Z,96565.84
2023-03-06T23:37:19.104Z,96554.03
2023-03-06T23:39:45.726Z,96559.94
2023-03-06T23:42:12.246Z,96554.94
2023-03-06T23:44:38.808Z,96556.53
2023-03-06T23:47:05.519Z,96556.78
2023-03-06T23:49:32.076Z,96551.81
2023-03-06T23:51:58.722Z,96557.72
2023-03-06T23:54:25.375Z,96553.06
2023-03-06T23:56:51.914Z,96549.44
2023-03-06T23:59:18.483Z,96553.59
